Time;durP1;ratioP1;P1;durP2;ratioP2;P2;SDS_P1;SDS_P2;PMS_P1;PMS_P2;Temp;Humidity;BMP_temperature;BMP_pressure;BME280_temperature;BME280_humidity;BME280_pressure;Samples;Min_cycle;Max_cycle;Signal;HPM_P1;HPM_P2
2021/09/19 00:02:18;;;;;;;15.90;9.25;;;12.00;99.90;;;;;;1866259;76;21155;-77
2021/09/19 00:04:44;;;;;;;13.08;8.83;;;12.10;99.90;;;;;;1857064;76;21050;-76
2021/09/19 00:07:10;;;;;;;13.98;10.53;;;12.10;99.90;;;;;;1857455;75;21528;-77
2021/09/19 00:09:37;;;;;;;13.93;10.25;;;12.00;99.90;;;;;;1859002;76;21592;-77
2021/09/19 00:12:03;;;;;;;14.40;10.18;;;12.00;99.90;;;;;;1858023;76;21117;-76
2021/09/19 00:14:30;;;;;;;11.48;9.73;;;12.00;99.90;;;;;;1855947;75;21128;-77
2021/09/19 00:16:56;;;;;;;14.87;11.12;;;12.00;99.90;;;;;;1863722;76;21078;-77
2021/09/19 00:19:22;;;;;;;13.75;10.18;;;12.00;99.90;;;;;;1867403;75;21128;-76
2021/09/19 00:21:48;;;;;;;12.85;10.00;;;11.90;99.90;;;;;;1872248;75;21069;-75
2021/09/19 00:24:16;;;;;;;13.03;11.38;;;11.90;99.90;;;;;;1823820;77;21172;-75
2021/09/19 00:26:42;;;;;;;15.28;10.78;;;11.90;99.90;;;;;;1824014;77;21227;-74
2021/09/19 00:29:08;;;;;;;11.97;9.93;;;11.90;99.90;;;;;;1823516;77;21164;-75
2021/09/19 00:31:36;;;;;;;11.57;9.98;;;11.80;99.90;;;;;;1816841;77;21788;-75
2021/09/19 00:34:02;;;;;;;14.00;10.68;;;11.70;99.90;;;;;;1809558;77;21640;-76
2021/09/19 00:36:28;;;;;;;13.95;10.25;;;11.70;99.90;;;;;;1814288;77;21510;-76
2021/09/19 00:38:54;;;;;;;12.18;10.20;;;11.70;99.90;;;;;;1809385;77;21505;-76
2021/09/19 00:41:20;;;;;;;14.00;10.68;;;11.70;99.90;;;;;;1814466;77;21580;-76
2021/09/19 00:43:47;;;;;;;11.28;10.00;;;11.70;99.90;;;;;;1814535;77;21564;-76
2021/09/19 00:46:13;;;;;;;12.20;10.50;;;11.70;99.90;;;;;;1820295;77;21180;-76
2021/09/19 00:48:39;;;;;;;20.08;11.05;;;11.60;99.90;;;;;;1819263;78;21159;-76
2021/09/19 00:51:06;;;;;;;10.70;9.63;;;11.60;99.90;;;;;;1819790;77;21165;-76
2021/09/19 00:53:33;;;;;;;15.23;10.08;;;11.60;99.90;;;;;;1805295;77;21193;-76
2021/09/19 00:56:00;;;;;;;12.98;10.40;;;11.60;99.90;;;;;;1810787;76;21604;-76
2021/09/19 00:58:26;;;;;;;14.15;9.55;;;11.60;99.90;;;;;;1814954;77;21102;-76
2021/09/19 01:00:52;;;;;;;12.95;10.10;;;11.60;99.90;;;;;;1771361;78;21095;-76
2021/09/19 01:03:18;;;;;;;12.53;10.15;;;11.50;99.90;;;;;;1807815;77;21159;-76
2021/09/19 01:05:44;;;;;;;13.53;10.30;;;11.50;99.90;;;;;;1808881;78;21168;-75
2021/09/19 01:08:10;;;;;;;14.87;10.68;;;11.50;99.90;;;;;;1809055;77;21098;-77
2021/09/19 01:10:36;;;;;;;10.60;9.55;;;11.40;99.90;;;;;;1817895;77;21094;-76
2021/09/19 01:13:03;;;;;;;15.60;10.03;;;11.40;99.90;;;;;;1817996;77;21152;-76
2021/09/19 01:15:29;;;;;;;13.10;10.05;;;11.40;99.90;;;;;;1814620;77;21185;-77
2021/09/19 01:17:55;;;;;;;11.28;10.13;;;11.30;99.90;;;;;;1816193;77;21090;-75
2021/09/19 01:20:21;;;;;;;11.15;9.68;;;11.40;99.90;;;;;;1806529;77;21219;-76
2021/09/19 01:22:47;;;;;;;11.57;9.83;;;11.40;99.90;;;;;;1811947;77;21094;-76
2021/09/19 01:25:13;;;;;;;12.78;9.85;;;11.40;99.90;;;;;;1817643;77;21153;-76
2021/09/19 01:27:39;;;;;;;16.00;10.88;;;11.30;99.90;;;;;;1811656;77;21290;-76
2021/09/19 01:30:05;;;;;;;13.03;10.28;;;11.30;99.90;;;;;;1817866;77;21184;-76
2021/09/19 01:32:32;;;;;;;15.55;10.18;;;11.30;99.90;;;;;;1817974;77;21086;-76
2021/09/19 01:34:58;;;;;;;14.38;10.38;;;11.30;99.90;;;;;;1813022;77;21265;-76
2021/09/19 01:37:24;;;;;;;13.65;11.03;;;11.30;99.90;;;;;;1816960;77;21102;-76
2021/09/19 01:39:52;;;;;;;13.43;10.65;;;11.30;99.90;;;;;;1817843;77;21181;-76
2021/09/19 01:42:18;;;;;;;15.08;10.63;;;11.30;99.90;;;;;;1817871;77;21176;-76
2021/09/19 01:44:44;;;;;;;16.65;10.55;;;11.30;99.90;;;;;;1812860;77;21102;-76
2021/09/19 01:47:10;;;;;;;11.03;9.65;;;11.30;99.90;;;;;;1817869;77;21094;-76
2021/09/19 01:49:36;;;;;;;14.47;9.38;;;11.20;99.90;;;;;;1806551;77;21098;-76
2021/09/19 01:52:02;;;;;;;11.35;9.73;;;11.20;99.90;;;;;;1816260;77;21102;-76
2021/09/19 01:54:28;;;;;;;17.37;10.43;;;11.10;99.90;;;;;;1812730;77;21096;-76
2021/09/19 01:56:54;;;;;;;12.93;10.25;;;11.10;99.90;;;;;;1798341;77;21089;-77
2021/09/19 01:59:21;;;;;;;13.62;9.95;;;11.10;99.90;;;;;;1810512;77;21176;-76
2021/09/19 02:01:47;;;;;;;12.28;9.78;;;11.10;99.90;;;;;;1801453;77;21066;-76
2021/09/19 02:04:13;;;;;;;13.68;10.48;;;11.10;99.90;;;;;;1814333;77;21098;-76
2021/09/19 02:06:39;;;;;;;10.88;9.10;;;11.10;99.90;;;;;;1815010;77;21109;-76
2021/09/19 02:09:05;;;;;;;12.68;8.83;;;11.10;99.90;;;;;;1814996;77;21180;-76
2021/09/19 02:11:31;;;;;;;12.55;9.10;;;11.00;99.90;;;;;;1811674;77;21168;-76
2021/09/19 02:13:57;;;;;;;11.00;8.88;;;11.00;99.90;;;;;;1812776;77;21169;-76
2021/09/19 02:16:24;;;;;;;18.35;8.35;;;11.00;99.90;;;;;;1802477;77;21137;-77
2021/09/19 02:18:50;;;;;;;9.53;8.58;;;11.00;99.90;;;;;;1817958;77;21139;-76
2021/09/19 02:21:16;;;;;;;8.70;7.85;;;11.00;99.90;;;;;;1812143;77;21067;-76
2021/09/19 02:23:43;;;;;;;11.88;9.23;;;11.00;99.90;;;;;;1812700;77;21379;-76
2021/09/19 02:26:09;;;;;;;13.22;8.78;;;11.00;99.90;;;;;;1813796;77;21297;-77
2021/09/19 02:28:35;;;;;;;13.08;8.58;;;10.90;99.90;;;;;;1804916;79;21184;-77
2021/09/19 02:31:01;;;;;;;10.08;8.10;;;10.90;99.90;;;;;;1801983;79;21066;-77
2021/09/19 02:33:27;;;;;;;10.48;8.63;;;10.90;99.90;;;;;;1811509;77;21105;-76
2021/09/19 02:35:53;;;;;;;9.10;8.18;;;10.90;99.90;;;;;;1818093;77;21180;-76
2021/09/19 02:38:19;;;;;;;12.53;8.75;;;10.90;99.90;;;;;;1806309;77;21636;-76
2021/09/19 02:40:45;;;;;;;11.40;8.28;;;10.90;99.90;;;;;;1791295;79;21513;-77
2021/09/19 02:43:12;;;;;;;12.18;8.38;;;10.90;99.90;;;;;;1799402;79;21530;-76
2021/09/19 02:45:38;;;;;;;12.53;8.45;;;10.80;99.90;;;;;;1805566;79;21584;-76
2021/09/19 02:48:04;;;;;;;10.40;9.28;;;10.80;99.90;;;;;;1796007;79;21485;-77
2021/09/19 02:50:30;;;;;;;13.08;9.28;;;11.00;99.90;;;;;;1799643;77;21517;-76
2021/09/19 02:52:56;;;;;;;13.05;8.93;;;10.90;99.90;;;;;;1811835;77;21541;-76
2021/09/19 02:55:22;;;;;;;9.88;8.88;;;10.90;99.90;;;;;;1806572;77;21478;-76
2021/09/19 02:57:48;;;;;;;15.58;11.12;;;10.90;99.90;;;;;;1812681;77;21101;-76
2021/09/19 03:00:14;;;;;;;13.68;9.35;;;10.90;99.90;;;;;;1812932;77;21192;-76
2021/09/19 03:02:41;;;;;;;10.90;9.08;;;10.90;99.90;;;;;;1805500;79;21176;-76
2021/09/19 03:05:07;;;;;;;11.73;9.28;;;10.90;99.90;;;;;;1818565;77;21169;-76
2021/09/19 03:07:33;;;;;;;12.93;9.95;;;10.80;99.90;;;;;;1813389;77;21093;-77
2021/09/19 03:09:59;;;;;;;13.95;10.32;;;10.80;99.90;;;;;;1805866;79;21097;-77
2021/09/19 03:12:25;;;;;;;13.13;9.88;;;10.80;99.90;;;;;;1808931;77;21071;-76
2021/09/19 03:14:51;;;;;;;15.58;10.15;;;10.80;99.90;;;;;;1806695;77;21097;-76
2021/09/19 03:17:17;;;;;;;11.48;9.50;;;10.80;99.90;;;;;;1815224;77;21086;-77
2021/09/19 03:19:43;;;;;;;10.30;8.75;;;10.70;99.90;;;;;;1803814;77;21079;-76
2021/09/19 03:22:10;;;;;;;15.28;10.18;;;10.70;99.90;;;;;;1803385;77;21094;-77
2021/09/19 03:24:36;;;;;;;10.63;8.65;;;10.70;99.90;;;;;;1818120;77;21171;-77
2021/09/19 03:27:02;;;;;;;10.63;8.95;;;10.80;99.90;;;;;;1817951;77;21196;-77
2021/09/19 03:29:28;;;;;;;13.83;8.60;;;10.80;99.90;;;;;;1817975;77;21079;-77
2021/09/19 03:31:54;;;;;;;11.93;9.40;;;10.70;99.90;;;;;;1817808;77;21142;-76
2021/09/19 03:34:20;;;;;;;12.98;9.43;;;10.80;99.90;;;;;;1818137;77;21106;-76
2021/09/19 03:36:47;;;;;;;10.25;9.05;;;10.80;99.90;;;;;;1817877;77;21126;-77
2021/09/19 03:39:13;;;;;;;10.72;9.13;;;10.80;99.90;;;;;;1817915;77;21584;-76
2021/09/19 03:41:39;;;;;;;15.38;9.78;;;10.80;99.90;;;;;;1811660;77;21490;-76
2021/09/19 03:44:06;;;;;;;13.75;9.55;;;10.90;99.90;;;;;;1806485;77;21596;-76
2021/09/19 03:46:33;;;;;;;12.03;10.23;;;10.80;99.90;;;;;;1804208;78;21079;-76
2021/09/19 03:48:59;;;;;;;13.65;10.23;;;10.80;99.90;;;;;;1813470;77;21090;-76
2021/09/19 03:51:25;;;;;;;11.40;9.50;;;10.80;99.90;;;;;;1817159;77;21098;-77
2021/09/19 03:53:51;;;;;;;13.70;10.65;;;10.80;99.90;;;;;;1806553;77;21071;-76
2021/09/19 03:56:17;;;;;;;17.30;11.40;;;10.70;99.90;;;;;;1816752;77;21102;-77
2021/09/19 03:58:43;;;;;;;12.85;10.95;;;10.80;99.90;;;;;;1797725;79;21097;-76
2021/09/19 04:01:09;;;;;;;12.25;10.53;;;10.70;99.90;;;;;;1805717;79;21096;-77
2021/09/19 04:03:35;;;;;;;10.58;9.38;;;10.70;99.90;;;;;;1812696;77;21093;-77
2021/09/19 04:06:02;;;;;;;10.18;9.08;;;10.70;99.90;;;;;;1804321;78;21102;-77
2021/09/19 04:08:28;;;;;;;11.73;9.18;;;10.70;99.90;;;;;;1797835;77;21098;-77
2021/09/19 04:10:54;;;;;;;11.18;8.73;;;10.70;99.90;;;;;;1812820;77;21101;-77
2021/09/19 04:13:20;;;;;;;10.38;9.23;;;10.70;99.90;;;;;;1810662;77;21596;-77
2021/09/19 04:15:46;;;;;;;11.20;9.23;;;10.60;99.90;;;;;;1804036;77;21538;-77
2021/09/19 04:18:14;;;;;;;12.00;9.80;;;10.70;99.90;;;;;;1816204;78;21565;-77
2021/09/19 04:20:40;;;;;;;12.33;10.03;;;10.70;99.90;;;;;;1803355;79;21107;-77
2021/09/19 04:23:06;;;;;;;12.58;9.20;;;10.70;99.90;;;;;;1801858;78;21089;-77
2021/09/19 04:25:32;;;;;;;14.47;9.08;;;10.70;99.90;;;;;;1811131;77;21096;-77
2021/09/19 04:27:58;;;;;;;10.65;8.85;;;10.60;99.90;;;;;;1812146;77;21221;-77
2021/09/19 04:30:25;;;;;;;10.60;9.58;;;10.60;99.90;;;;;;1818440;78;21290;-77
2021/09/19 04:32:51;;;;;;;10.38;8.18;;;10.60;99.90;;;;;;1812251;77;21106;-77
2021/09/19 04:35:17;;;;;;;12.33;8.75;;;10.50;99.90;;;;;;1800664;77;21162;-77
2021/09/19 04:37:43;;;;;;;11.70;8.40;;;10.50;99.90;;;;;;1800858;79;21102;-76
2021/09/19 04:40:09;;;;;;;13.65;9.18;;;10.50;99.90;;;;;;1818497;77;21086;-77
2021/09/19 04:42:35;;;;;;;9.35;8.13;;;10.50;99.90;;;;;;1818294;77;21501;-76
2021/09/19 04:45:01;;;;;;;9.50;7.80;;;10.50;99.90;;;;;;1813206;77;21501;-76
2021/09/19 04:47:27;;;;;;;12.80;10.90;;;10.40;99.90;;;;;;1817796;77;21611;-77
2021/09/19 04:49:54;;;;;;;12.68;10.85;;;10.30;99.90;;;;;;1805970;77;21543;-77
2021/09/19 04:52:20;;;;;;;10.95;8.00;;;10.30;99.90;;;;;;1813127;77;21513;-77
2021/09/19 04:54:46;;;;;;;10.13;8.68;;;10.40;99.90;;;;;;1810887;77;21584;-77
2021/09/19 04:57:12;;;;;;;10.32;7.75;;;10.50;99.90;;;;;;1814428;77;21537;-77
2021/09/19 04:59:38;;;;;;;9.83;7.12;;;10.40;99.90;;;;;;1805883;77;21603;-77
2021/09/19 05:02:04;;;;;;;11.00;7.22;;;10.30;99.90;;;;;;1818356;77;21143;-77
2021/09/19 05:04:30;;;;;;;8.08;7.28;;;10.30;99.90;;;;;;1818417;77;21169;-76
2021/09/19 05:06:56;;;;;;;10.18;8.08;;;10.30;99.90;;;;;;1816349;77;21106;-77
2021/09/19 05:09:23;;;;;;;10.63;7.83;;;10.40;99.90;;;;;;1798367;77;21070;-76
2021/09/19 05:11:49;;;;;;;9.08;7.60;;;10.40;99.90;;;;;;1807289;77;21106;-76
2021/09/19 05:14:15;;;;;;;12.07;8.38;;;10.30;99.90;;;;;;1803405;79;21141;-76
2021/09/19 05:16:41;;;;;;;12.07;7.62;;;10.40;99.90;;;;;;1809174;77;21160;-76
2021/09/19 05:19:07;;;;;;;9.20;8.03;;;10.30;99.90;;;;;;1805921;79;21097;-76
2021/09/19 05:21:33;;;;;;;11.25;7.95;;;10.20;99.90;;;;;;1803596;77;21094;-77
2021/09/19 05:23:59;;;;;;;14.40;8.18;;;10.20;99.90;;;;;;1809150;79;21587;-79
2021/09/19 05:26:26;;;;;;;11.35;7.67;;;10.30;99.90;;;;;;1808669;77;21510;-78
2021/09/19 05:28:52;;;;;;;8.85;7.80;;;10.20;99.90;;;;;;1810468;77;21070;-79
2021/09/19 05:31:18;;;;;;;8.63;7.75;;;10.30;99.90;;;;;;1818520;77;21094;-79
2021/09/19 05:33:46;;;;;;;9.75;8.33;;;10.30;99.90;;;;;;1801682;77;21097;-79
2021/09/19 05:36:12;;;;;;;9.05;8.15;;;10.40;99.90;;;;;;1814756;77;21147;-79
2021/09/19 05:38:38;;;;;;;8.95;8.08;;;10.40;99.90;;;;;;1810369;77;21486;-78
2021/09/19 05:41:04;;;;;;;10.43;7.83;;;10.40;99.90;;;;;;1813160;77;21518;-78
2021/09/19 05:43:30;;;;;;;9.10;7.78;;;10.40;99.90;;;;;;1818437;77;21545;-78
2021/09/19 05:45:56;;;;;;;8.28;7.45;;;10.40;99.90;;;;;;1812319;78;21458;-77
2021/09/19 05:48:22;;;;;;;8.78;7.80;;;10.50;99.90;;;;;;1818120;77;21605;-77
2021/09/19 05:50:48;;;;;;;8.73;7.78;;;10.50;99.90;;;;;;1802543;79;21627;-77
2021/09/19 05:53:15;;;;;;;10.30;8.28;;;10.50;99.90;;;;;;1817724;77;21131;-77
2021/09/19 05:55:41;;;;;;;10.68;7.83;;;10.50;99.90;;;;;;1814622;77;21075;-77
2021/09/19 05:58:07;;;;;;;25.57;8.05;;;10.40;99.90;;;;;;1801986;77;21098;-78
2021/09/19 06:00:33;;;;;;;9.05;8.10;;;10.50;99.90;;;;;;1817053;77;21263;-77
2021/09/19 06:02:59;;;;;;;10.38;8.35;;;10.60;99.90;;;;;;1810707;77;21175;-77
2021/09/19 06:05:25;;;;;;;9.38;7.70;;;10.60;99.90;;;;;;1806096;79;21109;-77
2021/09/19 06:07:51;;;;;;;9.50;7.83;;;10.60;99.90;;;;;;1818115;77;21217;-76
2021/09/19 06:10:17;;;;;;;8.43;7.60;;;10.70;99.90;;;;;;1808768;79;21094;-78
2021/09/19 06:12:44;;;;;;;11.22;8.33;;;10.80;99.90;;;;;;1805451;77;21099;-78
2021/09/19 06:15:10;;;;;;;9.73;7.85;;;10.90;99.90;;;;;;1807080;77;21074;-75
2021/09/19 06:17:36;;;;;;;10.53;8.08;;;10.90;99.90;;;;;;1807837;77;21164;-75
2021/09/19 06:20:02;;;;;;;10.00;8.18;;;11.00;99.90;;;;;;1797863;77;21105;-80
2021/09/19 06:22:28;;;;;;;13.40;7.85;;;10.90;99.90;;;;;;1805859;79;21099;-81
2021/09/19 06:24:54;;;;;;;11.75;8.20;;;11.00;99.90;;;;;;1801986;77;21098;-79
2021/09/19 06:27:21;;;;;;;8.68;7.58;;;11.10;99.90;;;;;;1812992;77;21163;-80
2021/09/19 06:29:47;;;;;;;9.88;7.75;;;11.10;99.90;;;;;;1792851;77;21190;-79
2021/09/19 06:32:13;;;;;;;9.13;7.62;;;11.20;99.90;;;;;;1806912;77;21514;-78
2021/09/19 06:34:39;;;;;;;11.53;9.20;;;11.40;99.90;;;;;;1817480;77;21560;-78
2021/09/19 06:37:05;;;;;;;12.78;9.38;;;11.40;99.90;;;;;;1810781;77;21659;-78
2021/09/19 06:39:31;;;;;;;20.80;9.73;;;11.50;99.90;;;;;;1809627;77;21612;-79
2021/09/19 06:41:57;;;;;;;12.05;9.80;;;11.50;99.90;;;;;;1808248;77;21505;-80
2021/09/19 06:44:23;;;;;;;11.53;9.70;;;11.60;99.90;;;;;;1805875;77;21510;-79
2021/09/19 06:46:52;;;;;;;13.80;10.00;;;11.70;99.90;;;;;;1809983;77;21612;-79
2021/09/19 06:49:17;;;;;;;15.08;10.28;;;11.70;99.90;;;;;;1798565;77;21099;-78
2021/09/19 06:51:45;;;;;;;13.93;9.98;;;11.80;99.90;;;;;;1809899;78;21106;-78
2021/09/19 06:54:11;;;;;;;12.93;10.50;;;11.90;99.90;;;;;;1812213;77;21169;-81
2021/09/19 06:56:37;;;;;;;13.38;10.30;;;12.00;99.90;;;;;;1801084;77;21097;-78
2021/09/19 06:59:03;;;;;;;12.70;10.08;;;12.20;99.90;;;;;;1806766;77;21097;-77
2021/09/19 07:01:29;;;;;;;10.28;9.13;;;12.40;99.90;;;;;;1807110;78;21156;-76
2021/09/19 07:03:56;;;;;;;10.40;8.23;;;12.40;99.90;;;;;;1803772;79;21129;-77
2021/09/19 07:06:23;;;;;;;11.50;8.55;;;12.50;99.90;;;;;;1804155;79;21221;-78
2021/09/19 07:08:49;;;;;;;10.60;8.50;;;12.70;99.90;;;;;;1801062;79;21090;-79
2021/09/19 07:11:15;;;;;;;9.35;7.33;;;12.90;99.90;;;;;;1799865;79;21093;-80
2021/09/19 07:13:41;;;;;;;10.03;7.67;;;13.00;99.90;;;;;;1818398;77;21086;-80
2021/09/19 07:16:07;;;;;;;10.50;7.90;;;13.00;99.90;;;;;;1818555;77;21184;-82
2021/09/19 07:18:34;;;;;;;8.28;7.28;;;13.10;99.90;;;;;;1818385;77;21123;-79
2021/09/19 07:21:00;;;;;;;7.70;6.95;;;13.20;99.90;;;;;;1812242;77;21098;-78
2021/09/19 07:23:26;;;;;;;8.70;7.00;;;13.30;99.90;;;;;;1818138;77;21176;-78
2021/09/19 07:25:52;;;;;;;8.13;7.25;;;13.50;99.90;;;;;;1804874;78;21110;-78
2021/09/19 07:28:18;;;;;;;10.08;6.95;;;13.60;99.90;;;;;;1803078;77;21483;-77
2021/09/19 07:30:44;;;;;;;7.47;6.78;;;13.70;99.90;;;;;;1811709;77;21505;-79
2021/09/19 07:33:10;;;;;;;10.05;6.60;;;13.80;99.90;;;;;;1806232;77;21490;-81
2021/09/19 07:35:36;;;;;;;6.78;6.00;;;13.90;99.90;;;;;;1811860;77;21624;-77
2021/09/19 07:38:03;;;;;;;7.72;6.25;;;14.10;99.90;;;;;;1818508;77;21571;-78
2021/09/19 07:40:29;;;;;;;8.20;6.30;;;14.10;99.90;;;;;;1818369;77;21139;-80
2021/09/19 07:42:57;;;;;;;8.13;5.42;;;14.30;99.90;;;;;;1812474;77;21172;-80
2021/09/19 07:45:23;;;;;;;6.65;5.95;;;14.40;99.90;;;;;;1817529;77;21143;-80
2021/09/19 07:47:49;;;;;;;9.43;5.90;;;14.40;99.90;;;;;;1818471;78;21172;-80
2021/09/19 07:50:15;;;;;;;6.97;5.30;;;14.50;99.90;;;;;;1809834;77;21134;-80
2021/09/19 07:52:42;;;;;;;7.78;6.08;;;14.60;99.90;;;;;;1808038;77;21169;-79
2021/09/19 07:55:11;;;;;;;8.05;5.83;;;14.80;99.90;;;;;;1803938;79;21074;-78
2021/09/19 07:57:36;;;;;;;10.30;5.03;;;14.90;99.90;;;;;;1806584;77;21211;-79
2021/09/19 08:00:02;;;;;;;8.63;5.53;;;15.20;99.90;;;;;;1801416;77;21201;-83
2021/09/19 08:02:28;;;;;;;7.65;5.03;;;15.30;99.90;;;;;;1812043;77;21102;-76
2021/09/19 08:04:54;;;;;;;5.90;4.42;;;15.50;99.90;;;;;;1812241;77;21082;-75
2021/09/19 08:07:21;;;;;;;7.47;5.08;;;15.50;99.90;;;;;;1801921;77;21099;-73
2021/09/19 08:09:47;;;;;;;4.30;3.90;;;15.60;99.90;;;;;;1800816;79;21087;-77
2021/09/19 08:12:13;;;;;;;4.12;3.60;;;15.70;99.90;;;;;;1807592;77;21102;-75
2021/09/19 08:14:40;;;;;;;5.28;3.90;;;15.90;99.90;;;;;;1819048;77;21168;-80
2021/09/19 08:17:06;;;;;;;5.10;3.20;;;16.10;99.90;;;;;;1802437;77;21094;-76
2021/09/19 08:19:32;;;;;;;3.27;2.70;;;16.50;99.90;;;;;;1818035;77;21075;-74
2021/09/19 08:21:58;;;;;;;3.05;2.65;;;16.50;99.90;;;;;;1795536;77;21155;-80
2021/09/19 08:24:24;;;;;;;2.98;2.58;;;16.90;99.90;;;;;;1808544;77;21097;-74
2021/09/19 08:26:50;;;;;;;2.77;2.50;;;17.30;99.90;;;;;;1818702;77;21090;-74
2021/09/19 08:29:16;;;;;;;3.02;2.70;;;17.30;99.90;;;;;;1811391;77;21115;-76
2021/09/19 08:31:46;;;;;;;3.10;2.70;;;17.30;99.90;;;;;;1811921;77;21093;-73
2021/09/19 08:34:12;;;;;;;2.22;2.02;;;17.60;99.90;;;;;;1815882;77;21094;-77
2021/09/19 08:36:38;;;;;;;2.30;2.10;;;18.10;99.90;;;;;;1818751;77;21098;-75
2021/09/19 08:39:04;;;;;;;3.37;2.30;;;18.30;99.90;;;;;;1806399;77;21094;-77
2021/09/19 08:41:30;;;;;;;3.33;2.08;;;18.50;99.90;;;;;;1812650;77;21164;-78
2021/09/19 08:43:57;;;;;;;3.27;2.12;;;18.70;99.90;;;;;;1812756;77;21134;-79
2021/09/19 08:46:23;;;;;;;3.20;2.22;;;18.90;99.90;;;;;;1818775;77;21078;-77
2021/09/19 08:48:50;;;;;;;2.47;2.08;;;18.70;99.90;;;;;;1813934;77;21098;-75
2021/09/19 08:51:16;;;;;;;3.10;2.20;;;18.90;99.90;;;;;;1814904;77;21133;-76
2021/09/19 08:53:42;;;;;;;2.80;1.90;;;19.30;99.90;;;;;;1817993;77;21188;-81
2021/09/19 08:56:08;;;;;;;2.17;1.98;;;19.80;99.90;;;;;;1809621;77;21174;-79
2021/09/19 08:58:34;;;;;;;5.67;2.10;;;19.80;99.90;;;;;;1813956;77;21204;-77
2021/09/19 09:01:00;;;;;;;1.80;1.70;;;19.90;99.90;;;;;;1806034;79;21176;-79
2021/09/19 09:03:26;;;;;;;3.62;3.33;;;20.00;99.90;;;;;;1806585;77;21103;-77
2021/09/19 09:05:53;;;;;;;1.85;1.75;;;20.20;99.90;;;;;;1818856;77;21175;-81
2021/09/19 09:08:20;;;;;;;8.00;1.92;;;20.40;99.90;;;;;;1806654;77;21172;-79
2021/09/19 09:10:46;;;;;;;1.92;1.77;;;20.50;99.90;;;;;;1807808;77;21144;-77
2021/09/19 09:13:12;;;;;;;1.92;1.80;;;20.50;99.90;;;;;;1819040;77;21102;-81
2021/09/19 09:15:38;;;;;;;3.15;1.82;;;20.20;99.90;;;;;;1814080;77;21493;-75
2021/09/19 09:18:07;;;;;;;2.30;2.10;;;19.80;99.90;;;;;;1818955;77;21510;-77
2021/09/19 09:20:34;;;;;;;2.50;1.95;;;20.00;99.90;;;;;;1818389;77;21131;-79
2021/09/19 09:23:00;;;;;;;1.82;1.72;;;19.70;99.90;;;;;;1813952;77;21090;-78
2021/09/19 09:25:28;;;;;;;1.80;1.70;;;19.50;99.90;;;;;;1812303;77;21180;-75
2021/09/19 09:27:54;;;;;;;2.15;2.02;;;19.90;99.90;;;;;;1810517;77;21487;-77
2021/09/19 09:30:20;;;;;;;2.02;1.87;;;19.90;99.90;;;;;;1804530;77;21497;-75
2021/09/19 09:32:46;;;;;;;7.28;1.85;;;20.00;99.90;;;;;;1805389;77;21098;-74
2021/09/19 09:35:13;;;;;;;4.65;1.67;;;20.50;99.90;;;;;;1807647;77;21086;-75
2021/09/19 09:37:39;;;;;;;10.08;2.10;;;20.50;99.90;;;;;;1813936;77;21087;-81
2021/09/19 09:40:05;;;;;;;2.10;1.90;;;20.10;99.90;;;;;;1808572;77;21238;-77
2021/09/19 09:42:36;;;;;;;2.37;2.02;;;20.50;99.90;;;;;;1818386;77;21617;-82
2021/09/19 09:44:59;;;;;;;2.55;2.10;;;20.80;99.90;;;;;;1806182;77;21101;-81
2021/09/19 09:47:28;;;;;;;2.90;1.90;;;20.50;99.90;;;;;;1818398;77;21208;-76
2021/09/19 09:49:53;;;;;;;2.00;1.90;;;20.40;99.90;;;;;;1808534;77;21094;-77
2021/09/19 09:52:19;;;;;;;2.40;1.80;;;20.50;99.90;;;;;;1807190;77;21108;-78
2021/09/19 09:54:46;;;;;;;2.35;2.10;;;20.50;99.90;;;;;;1800773;77;21153;-78
2021/09/19 09:57:12;;;;;;;2.40;1.90;;;20.60;99.90;;;;;;1808979;77;21114;-78
2021/09/19 09:59:38;;;;;;;2.00;1.80;;;21.20;99.90;;;;;;1800601;78;21070;-77
2021/09/19 10:02:04;;;;;;;2.20;2.00;;;21.20;99.90;;;;;;1806584;77;21301;-79
2021/09/19 10:04:32;;;;;;;3.08;2.20;;;20.90;99.90;;;;;;1813088;77;21206;-78
2021/09/19 10:06:58;;;;;;;2.22;1.98;;;21.20;99.90;;;;;;1810878;77;21102;-77
2021/09/19 10:09:25;;;;;;;2.60;2.08;;;21.50;99.90;;;;;;1818203;77;21067;-79
2021/09/19 10:11:51;;;;;;;2.75;2.50;;;21.70;99.90;;;;;;1818264;77;21616;-77
2021/09/19 10:14:17;;;;;;;2.37;2.17;;;21.80;99.90;;;;;;1800673;79;21557;-77
2021/09/19 10:16:43;;;;;;;2.62;2.42;;;21.30;99.90;;;;;;1817507;77;21514;-79
2021/09/19 10:19:09;;;;;;;6.10;2.60;;;21.50;99.90;;;;;;1818327;77;21546;-74
2021/09/19 10:21:36;;;;;;;5.03;2.40;;;22.20;99.90;;;;;;1813095;77;21422;-76
2021/09/19 10:24:02;;;;;;;2.50;2.17;;;22.40;99.90;;;;;;1796329;79;21090;-76
2021/09/19 10:26:30;;;;;;;4.85;2.72;;;22.60;99.90;;;;;;1809634;77;21621;-78
2021/09/19 10:28:56;;;;;;;4.53;2.47;;;22.70;99.90;;;;;;1798588;79;21172;-77
2021/09/19 10:31:22;;;;;;;3.70;2.92;;;21.90;99.90;;;;;;1801801;77;21087;-79
2021/09/19 10:33:48;;;;;;;2.77;2.47;;;21.70;99.90;;;;;;1806386;77;21093;-79
2021/09/19 10:36:14;;;;;;;4.33;2.87;;;21.60;99.90;;;;;;1817721;77;21613;-78
2021/09/19 10:38:41;;;;;;;2.62;2.42;;;21.40;99.90;;;;;;1818295;77;21615;-77
2021/09/19 10:41:07;;;;;;;4.12;2.40;;;21.60;99.90;;;;;;1818316;77;21111;-78
2021/09/19 10:43:33;;;;;;;2.90;2.70;;;22.00;99.90;;;;;;1806902;79;21160;-77
2021/09/19 10:45:59;;;;;;;4.95;2.40;;;22.40;99.90;;;;;;1807035;77;21075;-77
2021/09/19 10:48:25;;;;;;;3.10;2.62;;;23.00;99.90;;;;;;1814811;77;21093;-78
2021/09/19 10:50:55;;;;;;;2.87;2.60;;;22.90;99.90;;;;;;1803673;79;21089;-77
2021/09/19 10:53:19;;;;;;;3.47;2.22;;;22.90;99.90;;;;;;1817804;77;21264;-78
2021/09/19 10:55:46;;;;;;;2.92;2.42;;;23.10;99.90;;;;;;1812656;77;21171;-78
2021/09/19 10:58:12;;;;;;;3.17;2.30;;;23.70;99.90;;;;;;1811767;77;21592;-77
2021/09/19 11:00:39;;;;;;;2.40;2.17;;;23.60;99.90;;;;;;1800852;79;21070;-77
2021/09/19 11:03:07;;;;;;;3.05;2.75;;;23.20;99.90;;;;;;1795996;79;21117;-77
2021/09/19 11:05:33;;;;;;;2.62;1.98;;;22.60;99.90;;;;;;1791594;79;21097;-78
2021/09/19 11:07:59;;;;;;;2.60;2.40;;;22.40;99.90;;;;;;1803101;77;21086;-77
2021/09/19 11:10:25;;;;;;;4.97;2.30;;;22.90;99.90;;;;;;1812014;77;21099;-78
2021/09/19 11:12:51;;;;;;;2.30;2.00;;;23.60;99.90;;;;;;1800907;78;21081;-78
2021/09/19 11:15:17;;;;;;;2.92;2.10;;;24.00;99.90;;;;;;1796562;79;21094;-78
2021/09/19 11:17:44;;;;;;;2.72;1.80;;;23.80;99.90;;;;;;1816142;77;21224;-78
2021/09/19 11:20:10;;;;;;;1.70;1.60;;;24.50;99.90;;;;;;1818406;77;21075;-78
2021/09/19 11:22:36;;;;;;;1.98;1.65;;;24.60;99.90;;;;;;1812007;77;21190;-77
2021/09/19 11:25:02;;;;;;;2.17;1.40;;;23.80;99.90;;;;;;1807053;77;21090;-77
2021/09/19 11:27:28;;;;;;;1.85;1.60;;;23.20;99.90;;;;;;1813036;77;21105;-77
2021/09/19 11:29:54;;;;;;;1.70;1.60;;;22.50;99.90;;;;;;1818552;77;21075;-78
2021/09/19 11:32:20;;;;;;;4.70;2.83;;;22.50;99.90;;;;;;1818464;77;21139;-77
2021/09/19 11:34:46;;;;;;;1.90;1.60;;;22.50;99.90;;;;;;1818434;77;21176;-77
2021/09/19 11:37:12;;;;;;;7.58;2.65;;;22.40;99.90;;;;;;1818448;77;21113;-77
2021/09/19 11:39:39;;;;;;;2.10;1.67;;;21.90;99.90;;;;;;1817392;77;21475;-76
2021/09/19 11:42:05;;;;;;;2.08;1.95;;;22.80;99.90;;;;;;1814126;77;21564;-76
2021/09/19 11:44:31;;;;;;;2.05;1.70;;;23.50;99.90;;;;;;1805110;77;21502;-75
2021/09/19 11:46:57;;;;;;;2.20;2.00;;;24.00;99.90;;;;;;1798042;79;21572;-76
2021/09/19 11:49:23;;;;;;;2.17;1.60;;;24.60;99.90;;;;;;1812587;77;21530;-77
2021/09/19 11:51:49;;;;;;;8.48;1.67;;;24.70;99.90;;;;;;1818469;77;21526;-78
2021/09/19 11:54:15;;;;;;;1.85;1.67;;;24.00;99.90;;;;;;1818571;77;21596;-77
2021/09/19 11:56:41;;;;;;;2.40;2.12;;;23.80;99.90;;;;;;1818990;77;21114;-78
2021/09/19 11:59:08;;;;;;;2.40;1.85;;;23.70;99.90;;;;;;1807184;77;21093;-77
2021/09/19 12:01:35;;;;;;;1.55;1.45;;;23.60;99.90;;;;;;1810667;77;21175;-78
2021/09/19 12:04:02;;;;;;;1.90;1.80;;;23.80;99.90;;;;;;1795833;79;21176;-77
2021/09/19 12:06:28;;;;;;;2.08;1.62;;;24.60;99.90;;;;;;1803690;77;21098;-76
2021/09/19 12:08:54;;;;;;;2.83;1.82;;;25.40;99.90;;;;;;1818789;77;21092;-77
2021/09/19 12:11:20;;;;;;;1.85;1.72;;;25.00;99.90;;;;;;1815169;77;21234;-75
2021/09/19 12:13:47;;;;;;;2.35;1.62;;;24.40;99.90;;;;;;1807208;77;21204;-78
2021/09/19 12:16:13;;;;;;;2.33;1.70;;;23.50;99.90;;;;;;1799629;77;21172;-79
2021/09/19 12:18:39;;;;;;;1.70;1.60;;;22.40;99.90;;;;;;1818133;77;21070;-82
2021/09/19 12:21:05;;;;;;;1.90;1.45;;;22.10;99.90;;;;;;1818616;77;21098;-81
2021/09/19 12:23:31;;;;;;;5.05;1.90;;;22.40;99.90;;;;;;1812349;77;21177;-81
2021/09/19 12:25:57;;;;;;;5.15;1.60;;;22.70;99.90;;;;;;1815342;77;21164;-78
2021/09/19 12:28:23;;;;;;;2.52;1.70;;;23.80;99.90;;;;;;1818523;77;21135;-80
2021/09/19 12:30:51;;;;;;;2.80;1.77;;;24.40;99.90;;;;;;1813091;77;21171;-80
2021/09/19 12:33:17;;;;;;;2.47;1.70;;;24.60;99.90;;;;;;1808058;77;21159;-78
2021/09/19 12:35:43;;;;;;;1.35;1.22;;;24.80;99.90;;;;;;1812652;77;21172;-76